sensor_id;sensor_type;location;lat;lon;timestamp;P1;durP1;ratioP1;P2;durP2;ratioP2
12267;SDS011;6196;48.398;11.736;2022-10-17T00:00:47;7.03;;;4.23;;
12267;SDS011;6196;48.398;11.736;2022-10-17T00:03:14;6.80;;;4.50;;
12267;SDS011;6196;48.398;11.736;2022-10-17T00:05:43;5.37;;;4.90;;
12267;SDS011;6196;48.398;11.736;2022-10-17T00:08:13;7.30;;;4.70;;
12267;SDS011;6196;48.398;11.736;2022-10-17T00:10:42;5.70;;;5.13;;
12267;SDS011;6196;48.398;11.736;2022-10-17T00:13:10;6.43;;;5.13;;
12267;SDS011;6196;48.398;11.736;2022-10-17T00:15:37;5.47;;;4.80;;
12267;SDS011;6196;48.398;11.736;2022-10-17T00:18:08;6.13;;;4.53;;
12267;SDS011;6196;48.398;11.736;2022-10-17T00:20:35;5.80;;;5.20;;
12267;SDS011;6196;48.398;11.736;2022-10-17T00:23:02;6.03;;;4.97;;
12267;SDS011;6196;48.398;11.736;2022-10-17T00:25:29;5.70;;;5.00;;
12267;SDS011;6196;48.398;11.736;2022-10-17T00:27:55;7.70;;;5.80;;
12267;SDS011;6196;48.398;11.736;2022-10-17T00:30:22;8.67;;;6.37;;
12267;SDS011;6196;48.398;11.736;2022-10-17T00:32:49;7.13;;;6.43;;
12267;SDS011;6196;48.398;11.736;2022-10-17T00:35:16;8.20;;;5.33;;
12267;SDS011;6196;48.398;11.736;2022-10-17T00:37:43;7.47;;;6.53;;
12267;SDS011;6196;48.398;11.736;2022-10-17T00:40:10;6.70;;;5.63;;
12267;SDS011;6196;48.398;11.736;2022-10-17T00:42:37;6.77;;;6.17;;
12267;SDS011;6196;48.398;11.736;2022-10-17T00:47:59;6.77;;;5.60;;
12267;SDS011;6196;48.398;11.736;2022-10-17T00:50:30;9.73;;;6.10;;
12267;SDS011;6196;48.398;11.736;2022-10-17T00:52:59;6.20;;;5.70;;
12267;SDS011;6196;48.398;11.736;2022-10-17T00:55:30;8.43;;;6.83;;
12267;SDS011;6196;48.398;11.736;2022-10-17T00:58:01;7.33;;;6.30;;
12267;SDS011;6196;48.398;11.736;2022-10-17T01:00:30;6.67;;;5.93;;
12267;SDS011;6196;48.398;11.736;2022-10-17T01:02:57;7.97;;;6.37;;
12267;SDS011;6196;48.398;11.736;2022-10-17T01:05:24;7.20;;;6.50;;
12267;SDS011;6196;48.398;11.736;2022-10-17T01:07:51;6.77;;;5.73;;
12267;SDS011;6196;48.398;11.736;2022-10-17T01:10:19;11.33;;;6.90;;
12267;SDS011;6196;48.398;11.736;2022-10-17T01:21:43;6.33;;;5.73;;
12267;SDS011;6196;48.398;11.736;2022-10-17T01:33:21;4.83;;;3.43;;
12267;SDS011;6196;48.398;11.736;2022-10-17T01:36:07;5.73;;;2.00;;
12267;SDS011;6196;48.398;11.736;2022-10-17T01:42:10;4.40;;;1.80;;
12267;SDS011;6196;48.398;11.736;2022-10-17T01:45:02;2.40;;;1.30;;
12267;SDS011;6196;48.398;11.736;2022-10-17T01:47:46;3.53;;;1.80;;
12267;SDS011;6196;48.398;11.736;2022-10-17T01:50:19;3.60;;;1.40;;
12267;SDS011;6196;48.398;11.736;2022-10-17T01:53:05;6.87;;;4.27;;
12267;SDS011;6196;48.398;11.736;2022-10-17T01:55:39;12.70;;;4.20;;
12267;SDS011;6196;48.398;11.736;2022-10-17T01:58:10;7.63;;;3.20;;
12267;SDS011;6196;48.398;11.736;2022-10-17T02:00:50;11.93;;;3.63;;
12267;SDS011;6196;48.398;11.736;2022-10-17T02:03:19;6.20;;;2.60;;
12267;SDS011;6196;48.398;11.736;2022-10-17T02:05:47;6.60;;;2.90;;
12267;SDS011;6196;48.398;11.736;2022-10-17T02:08:23;11.70;;;4.53;;
12267;SDS011;6196;48.398;11.736;2022-10-17T02:10:54;15.97;;;5.23;;
12267;SDS011;6196;48.398;11.736;2022-10-17T02:13:33;12.23;;;6.50;;
12267;SDS011;6196;48.398;11.736;2022-10-17T02:25:32;7.83;;;6.33;;
12267;SDS011;6196;48.398;11.736;2022-10-17T02:28:13;16.03;;;6.13;;
12267;SDS011;6196;48.398;11.736;2022-10-17T02:33:38;7.63;;;5.50;;
12267;SDS011;6196;48.398;11.736;2022-10-17T02:36:33;8.23;;;5.80;;
12267;SDS011;6196;48.398;11.736;2022-10-17T02:39:05;7.20;;;4.97;;
12267;SDS011;6196;48.398;11.736;2022-10-17T02:41:34;6.20;;;4.47;;
12267;SDS011;6196;48.398;11.736;2022-10-17T02:44:03;7.30;;;4.50;;
12267;SDS011;6196;48.398;11.736;2022-10-17T02:46:31;8.33;;;4.37;;
12267;SDS011;6196;48.398;11.736;2022-10-17T02:49:02;11.80;;;4.60;;
12267;SDS011;6196;48.398;11.736;2022-10-17T02:51:52;8.03;;;4.13;;
12267;SDS011;6196;48.398;11.736;2022-10-17T02:54:39;7.03;;;4.60;;
12267;SDS011;6196;48.398;11.736;2022-10-17T02:57:17;8.17;;;5.33;;
12267;SDS011;6196;48.398;11.736;2022-10-17T02:59:52;9.93;;;4.30;;
12267;SDS011;6196;48.398;11.736;2022-10-17T03:02:23;6.07;;;4.00;;
12267;SDS011;6196;48.398;11.736;2022-10-17T03:04:50;8.23;;;4.43;;
12267;SDS011;6196;48.398;11.736;2022-10-17T03:07:17;6.67;;;4.30;;
12267;SDS011;6196;48.398;11.736;2022-10-17T03:09:44;3.97;;;3.37;;
12267;SDS011;6196;48.398;11.736;2022-10-17T03:12:10;6.00;;;3.67;;
12267;SDS011;6196;48.398;11.736;2022-10-17T03:14:37;4.53;;;3.10;;
12267;SDS011;6196;48.398;11.736;2022-10-17T03:17:04;3.43;;;2.70;;
12267;SDS011;6196;48.398;11.736;2022-10-17T03:19:31;4.27;;;2.47;;
12267;SDS011;6196;48.398;11.736;2022-10-17T03:21:58;3.43;;;2.50;;
12267;SDS011;6196;48.398;11.736;2022-10-17T03:24:24;2.87;;;2.60;;
12267;SDS011;6196;48.398;11.736;2022-10-17T03:26:51;4.90;;;2.60;;
12267;SDS011;6196;48.398;11.736;2022-10-17T03:29:18;4.47;;;2.40;;
12267;SDS011;6196;48.398;11.736;2022-10-17T03:31:45;6.10;;;3.00;;
12267;SDS011;6196;48.398;11.736;2022-10-17T03:34:12;3.90;;;2.70;;
12267;SDS011;6196;48.398;11.736;2022-10-17T03:36:41;3.53;;;2.70;;
12267;SDS011;6196;48.398;11.736;2022-10-17T03:39:08;7.53;;;2.90;;
12267;SDS011;6196;48.398;11.736;2022-10-17T03:41:35;5.40;;;2.93;;
12267;SDS011;6196;48.398;11.736;2022-10-17T03:44:02;5.20;;;2.87;;
12267;SDS011;6196;48.398;11.736;2022-10-17T03:46:29;6.13;;;2.80;;
12267;SDS011;6196;48.398;11.736;2022-10-17T03:48:56;5.90;;;3.13;;
12267;SDS011;6196;48.398;11.736;2022-10-17T03:51:23;3.10;;;2.80;;
12267;SDS011;6196;48.398;11.736;2022-10-17T03:53:50;5.90;;;3.40;;
12267;SDS011;6196;48.398;11.736;2022-10-17T03:56:18;4.00;;;3.23;;
12267;SDS011;6196;48.398;11.736;2022-10-17T03:58:47;5.60;;;3.37;;
12267;SDS011;6196;48.398;11.736;2022-10-17T04:01:14;9.37;;;3.80;;
12267;SDS011;6196;48.398;11.736;2022-10-17T04:03:43;5.97;;;2.97;;
12267;SDS011;6196;48.398;11.736;2022-10-17T04:06:15;3.70;;;3.00;;
12267;SDS011;6196;48.398;11.736;2022-10-17T04:08:43;6.87;;;3.43;;
12267;SDS011;6196;48.398;11.736;2022-10-17T04:11:10;4.17;;;3.43;;
12267;SDS011;6196;48.398;11.736;2022-10-17T04:13:41;5.27;;;4.00;;
12267;SDS011;6196;48.398;11.736;2022-10-17T04:16:10;5.17;;;3.90;;
12267;SDS011;6196;48.398;11.736;2022-10-17T04:18:43;5.40;;;3.40;;
12267;SDS011;6196;48.398;11.736;2022-10-17T04:21:10;3.37;;;3.07;;
12267;SDS011;6196;48.398;11.736;2022-10-17T04:23:38;5.20;;;2.67;;
12267;SDS011;6196;48.398;11.736;2022-10-17T04:26:05;4.30;;;1.93;;
12267;SDS011;6196;48.398;11.736;2022-10-17T04:28:32;4.47;;;2.30;;
12267;SDS011;6196;48.398;11.736;2022-10-17T04:31:06;2.97;;;1.83;;
12267;SDS011;6196;48.398;11.736;2022-10-17T04:33:37;3.73;;;2.60;;
12267;SDS011;6196;48.398;11.736;2022-10-17T04:36:05;4.07;;;2.67;;
12267;SDS011;6196;48.398;11.736;2022-10-17T04:38:38;5.43;;;2.43;;
12267;SDS011;6196;48.398;11.736;2022-10-17T04:41:05;6.53;;;2.43;;
12267;SDS011;6196;48.398;11.736;2022-10-17T04:43:36;2.03;;;1.80;;
12267;SDS011;6196;48.398;11.736;2022-10-17T04:46:09;3.57;;;2.03;;
12267;SDS011;6196;48.398;11.736;2022-10-17T04:48:38;4.33;;;2.67;;
12267;SDS011;6196;48.398;11.736;2022-10-17T04:51:09;5.80;;;2.60;;
12267;SDS011;6196;48.398;11.736;2022-10-17T04:53:39;5.40;;;2.90;;
12267;SDS011;6196;48.398;11.736;2022-10-17T04:56:08;2.10;;;1.73;;
12267;SDS011;6196;48.398;11.736;2022-10-17T04:58:41;4.40;;;1.70;;
12267;SDS011;6196;48.398;11.736;2022-10-17T05:01:10;4.03;;;1.70;;
12267;SDS011;6196;48.398;11.736;2022-10-17T05:03:43;1.90;;;1.70;;
12267;SDS011;6196;48.398;11.736;2022-10-17T05:06:11;2.37;;;1.90;;
12267;SDS011;6196;48.398;11.736;2022-10-17T05:08:41;2.37;;;1.67;;
12267;SDS011;6196;48.398;11.736;2022-10-17T05:13:52;3.33;;;1.70;;
12267;SDS011;6196;48.398;11.736;2022-10-17T05:16:21;3.50;;;1.60;;
12267;SDS011;6196;48.398;11.736;2022-10-17T05:18:50;3.60;;;2.40;;
12267;SDS011;6196;48.398;11.736;2022-10-17T05:21:19;2.90;;;2.00;;
12267;SDS011;6196;48.398;11.736;2022-10-17T05:23:47;3.60;;;1.40;;
12267;SDS011;6196;48.398;11.736;2022-10-17T05:26:14;3.17;;;1.27;;
12267;SDS011;6196;48.398;11.736;2022-10-17T05:28:41;5.30;;;1.30;;
12267;SDS011;6196;48.398;11.736;2022-10-17T05:31:08;2.90;;;1.77;;
12267;SDS011;6196;48.398;11.736;2022-10-17T05:33:37;4.63;;;2.03;;
12267;SDS011;6196;48.398;11.736;2022-10-17T05:36:05;5.83;;;2.40;;
12267;SDS011;6196;48.398;11.736;2022-10-17T05:38:32;5.70;;;2.83;;
12267;SDS011;6196;48.398;11.736;2022-10-17T05:41:00;3.20;;;1.90;;
12267;SDS011;6196;48.398;11.736;2022-10-17T05:43:29;3.17;;;1.63;;
12267;SDS011;6196;48.398;11.736;2022-10-17T05:45:57;2.57;;;1.70;;
12267;SDS011;6196;48.398;11.736;2022-10-17T05:48:23;2.97;;;1.23;;
12267;SDS011;6196;48.398;11.736;2022-10-17T05:50:56;1.80;;;1.50;;
12267;SDS011;6196;48.398;11.736;2022-10-17T05:53:35;4.53;;;1.70;;
12267;SDS011;6196;48.398;11.736;2022-10-17T05:56:05;3.77;;;1.90;;
12267;SDS011;6196;48.398;11.736;2022-10-17T05:58:34;1.57;;;1.37;;
12267;SDS011;6196;48.398;11.736;2022-10-17T06:01:15;2.53;;;1.70;;
12267;SDS011;6196;48.398;11.736;2022-10-17T06:03:43;3.20;;;1.37;;
12267;SDS011;6196;48.398;11.736;2022-10-17T06:06:10;5.97;;;1.40;;
12267;SDS011;6196;48.398;11.736;2022-10-17T06:08:38;1.73;;;1.23;;
12267;SDS011;6196;48.398;11.736;2022-10-17T06:11:05;2.80;;;1.00;;
12267;SDS011;6196;48.398;11.736;2022-10-17T06:13:36;2.53;;;1.30;;
12267;SDS011;6196;48.398;11.736;2022-10-17T06:16:04;2.40;;;1.40;;
12267;SDS011;6196;48.398;11.736;2022-10-17T06:18:31;5.13;;;2.13;;
12267;SDS011;6196;48.398;11.736;2022-10-17T06:21:05;3.63;;;1.80;;
12267;SDS011;6196;48.398;11.736;2022-10-17T06:23:35;7.73;;;2.30;;
12267;SDS011;6196;48.398;11.736;2022-10-17T06:26:03;19.33;;;2.60;;
12267;SDS011;6196;48.398;11.736;2022-10-17T06:28:31;5.83;;;2.70;;
12267;SDS011;6196;48.398;11.736;2022-10-17T06:31:03;5.40;;;2.53;;
12267;SDS011;6196;48.398;11.736;2022-10-17T06:33:35;4.90;;;2.37;;
12267;SDS011;6196;48.398;11.736;2022-10-17T06:36:03;2.27;;;2.07;;
12267;SDS011;6196;48.398;11.736;2022-10-17T06:38:35;7.03;;;1.73;;
12267;SDS011;6196;48.398;11.736;2022-10-17T06:41:12;5.90;;;1.57;;
12267;SDS011;6196;48.398;11.736;2022-10-17T06:43:42;2.57;;;2.33;;
12267;SDS011;6196;48.398;11.736;2022-10-17T06:46:15;3.43;;;2.50;;
12267;SDS011;6196;48.398;11.736;2022-10-17T06:48:44;5.17;;;2.63;;
12267;SDS011;6196;48.398;11.736;2022-10-17T06:51:11;4.13;;;2.67;;
12267;SDS011;6196;48.398;11.736;2022-10-17T06:53:38;3.97;;;2.70;;
12267;SDS011;6196;48.398;11.736;2022-10-17T06:56:06;3.10;;;2.80;;
12267;SDS011;6196;48.398;11.736;2022-10-17T06:58:34;4.13;;;2.70;;
12267;SDS011;6196;48.398;11.736;2022-10-17T07:01:05;3.63;;;2.40;;
12267;SDS011;6196;48.398;11.736;2022-10-17T07:03:37;3.63;;;2.50;;
12267;SDS011;6196;48.398;11.736;2022-10-17T07:06:06;4.40;;;2.50;;
12267;SDS011;6196;48.398;11.736;2022-10-17T07:08:33;3.40;;;2.20;;
12267;SDS011;6196;48.398;11.736;2022-10-17T07:13:41;7.40;;;2.67;;
12267;SDS011;6196;48.398;11.736;2022-10-17T07:16:08;2.80;;;1.70;;
12267;SDS011;6196;48.398;11.736;2022-10-17T07:18:36;3.30;;;1.57;;
12267;SDS011;6196;48.398;11.736;2022-10-17T07:21:03;2.13;;;1.53;;
12267;SDS011;6196;48.398;11.736;2022-10-17T07:23:31;3.00;;;1.73;;
12267;SDS011;6196;48.398;11.736;2022-10-17T07:26:05;3.10;;;1.57;;
12267;SDS011;6196;48.398;11.736;2022-10-17T07:28:37;3.00;;;2.03;;
12267;SDS011;6196;48.398;11.736;2022-10-17T07:31:06;4.07;;;2.57;;
12267;SDS011;6196;48.398;11.736;2022-10-17T07:33:37;4.70;;;2.90;;
12267;SDS011;6196;48.398;11.736;2022-10-17T07:36:04;4.57;;;2.50;;
12267;SDS011;6196;48.398;11.736;2022-10-17T07:38:31;3.03;;;2.77;;
12267;SDS011;6196;48.398;11.736;2022-10-17T07:41:00;4.83;;;3.33;;
12267;SDS011;6196;48.398;11.736;2022-10-17T07:43:30;3.50;;;2.93;;
12267;SDS011;6196;48.398;11.736;2022-10-17T07:45:59;4.50;;;3.10;;
12267;SDS011;6196;48.398;11.736;2022-10-17T07:48:27;2.87;;;2.67;;
12267;SDS011;6196;48.398;11.736;2022-10-17T07:50:54;4.60;;;2.90;;
12267;SDS011;6196;48.398;11.736;2022-10-17T07:53:20;4.70;;;2.83;;
12267;SDS011;6196;48.398;11.736;2022-10-17T07:55:47;4.97;;;2.40;;
12267;SDS011;6196;48.398;11.736;2022-10-17T07:58:15;2.63;;;2.30;;
12267;SDS011;6196;48.398;11.736;2022-10-17T08:00:42;3.70;;;2.47;;
12267;SDS011;6196;48.398;11.736;2022-10-17T08:03:09;2.73;;;2.53;;
12267;SDS011;6196;48.398;11.736;2022-10-17T08:05:36;3.60;;;2.40;;
12267;SDS011;6196;48.398;11.736;2022-10-17T08:08:03;3.50;;;2.73;;
12267;SDS011;6196;48.398;11.736;2022-10-17T08:10:30;3.93;;;2.40;;
12267;SDS011;6196;48.398;11.736;2022-10-17T08:12:57;5.77;;;2.63;;
12267;SDS011;6196;48.398;11.736;2022-10-17T08:15:24;3.60;;;2.20;;
12267;SDS011;6196;48.398;11.736;2022-10-17T08:17:57;3.60;;;2.60;;
12267;SDS011;6196;48.398;11.736;2022-10-17T08:20:24;5.77;;;2.63;;
12267;SDS011;6196;48.398;11.736;2022-10-17T08:22:52;4.20;;;2.63;;
12267;SDS011;6196;48.398;11.736;2022-10-17T08:25:20;2.87;;;2.43;;
12267;SDS011;6196;48.398;11.736;2022-10-17T08:27:47;4.53;;;2.37;;
12267;SDS011;6196;48.398;11.736;2022-10-17T08:30:15;5.40;;;2.30;;
12267;SDS011;6196;48.398;11.736;2022-10-17T08:32:42;2.93;;;2.67;;
12267;SDS011;6196;48.398;11.736;2022-10-17T08:35:09;3.87;;;2.80;;
12267;SDS011;6196;48.398;11.736;2022-10-17T08:37:36;3.93;;;2.90;;
12267;SDS011;6196;48.398;11.736;2022-10-17T08:40:03;2.87;;;2.40;;
12267;SDS011;6196;48.398;11.736;2022-10-17T08:45:31;5.13;;;2.80;;
12267;SDS011;6196;48.398;11.736;2022-10-17T08:48:22;3.60;;;2.60;;
12267;SDS011;6196;48.398;11.736;2022-10-17T08:50:52;6.13;;;2.70;;
12267;SDS011;6196;48.398;11.736;2022-10-17T08:53:28;3.33;;;2.77;;
12267;SDS011;6196;48.398;11.736;2022-10-17T08:59:09;2.67;;;2.47;;
12267;SDS011;6196;48.398;11.736;2022-10-17T09:01:45;6.47;;;2.73;;
12267;SDS011;6196;48.398;11.736;2022-10-17T09:07:25;6.27;;;3.50;;
12267;SDS011;6196;48.398;11.736;2022-10-17T09:10:06;2.90;;;2.60;;
12267;SDS011;6196;48.398;11.736;2022-10-17T09:15:46;4.23;;;2.60;;
12267;SDS011;6196;48.398;11.736;2022-10-17T09:18:17;4.40;;;2.73;;
12267;SDS011;6196;48.398;11.736;2022-10-17T09:20:53;5.27;;;2.70;;
12267;SDS011;6196;48.398;11.736;2022-10-17T09:23:35;3.10;;;2.80;;
12267;SDS011;6196;48.398;11.736;2022-10-17T09:26:24;2.97;;;2.63;;
12267;SDS011;6196;48.398;11.736;2022-10-17T09:28:52;2.90;;;2.33;;
12267;SDS011;6196;48.398;11.736;2022-10-17T09:31:25;2.90;;;2.60;;
12267;SDS011;6196;48.398;11.736;2022-10-17T09:33:59;3.10;;;2.67;;
12267;SDS011;6196;48.398;11.736;2022-10-17T09:36:30;6.33;;;2.77;;
12267;SDS011;6196;48.398;11.736;2022-10-17T09:41:42;4.60;;;2.30;;
12267;SDS011;6196;48.398;11.736;2022-10-17T09:44:15;4.77;;;2.90;;
12267;SDS011;6196;48.398;11.736;2022-10-17T09:47:30;2.80;;;2.50;;
12267;SDS011;6196;48.398;11.736;2022-10-17T09:50:04;5.87;;;2.80;;
12267;SDS011;6196;48.398;11.736;2022-10-17T09:52:43;3.77;;;2.70;;
12267;SDS011;6196;48.398;11.736;2022-10-17T09:55:17;3.50;;;2.40;;
12267;SDS011;6196;48.398;11.736;2022-10-17T09:58:03;2.40;;;2.13;;
12267;SDS011;6196;48.398;11.736;2022-10-17T10:00:33;2.97;;;2.37;;
12267;SDS011;6196;48.398;11.736;2022-10-17T10:08:32;7.63;;;3.00;;
12267;SDS011;6196;48.398;11.736;2022-10-17T10:11:04;2.87;;;2.27;;
12267;SDS011;6196;48.398;11.736;2022-10-17T10:13:39;4.83;;;2.60;;
12267;SDS011;6196;48.398;11.736;2022-10-17T10:18:58;5.20;;;2.27;;
12267;SDS011;6196;48.398;11.736;2022-10-17T10:21:25;2.77;;;2.33;;
12267;SDS011;6196;48.398;11.736;2022-10-17T10:26:47;6.27;;;2.63;;
12267;SDS011;6196;48.398;11.736;2022-10-17T10:29:29;2.57;;;2.27;;
12267;SDS011;6196;48.398;11.736;2022-10-17T10:32:07;3.07;;;2.27;;
12267;SDS011;6196;48.398;11.736;2022-10-17T10:34:34;8.83;;;2.50;;
12267;SDS011;6196;48.398;11.736;2022-10-17T10:39:57;3.10;;;1.90;;
12267;SDS011;6196;48.398;11.736;2022-10-17T10:42:36;3.40;;;2.50;;
12267;SDS011;6196;48.398;11.736;2022-10-17T10:51:15;4.33;;;2.53;;
12267;SDS011;6196;48.398;11.736;2022-10-17T10:56:59;2.83;;;2.40;;
12267;SDS011;6196;48.398;11.736;2022-10-17T10:59:45;3.28;;;2.50;;
12267;SDS011;6196;48.398;11.736;2022-10-17T11:02:32;3.15;;;2.60;;
12267;SDS011;6196;48.398;11.736;2022-10-17T11:07:49;2.83;;;2.28;;
12267;SDS011;6196;48.398;11.736;2022-10-17T11:13:31;3.00;;;2.28;;
12267;SDS011;6196;48.398;11.736;2022-10-17T11:19:07;3.42;;;2.28;;
12267;SDS011;6196;48.398;11.736;2022-10-17T11:25:09;2.47;;;1.85;;
12267;SDS011;6196;48.398;11.736;2022-10-17T11:27:53;3.53;;;2.33;;
12267;SDS011;6196;48.398;11.736;2022-10-17T11:30:20;3.95;;;2.22;;
12267;SDS011;6196;48.398;11.736;2022-10-17T11:32:52;2.25;;;1.80;;
12267;SDS011;6196;48.398;11.736;2022-10-17T11:35:37;2.30;;;1.92;;
12267;SDS011;6196;48.398;11.736;2022-10-17T11:38:18;3.72;;;1.90;;
12267;SDS011;6196;48.398;11.736;2022-10-17T11:41:08;2.17;;;2.00;;
12267;SDS011;6196;48.398;11.736;2022-10-17T11:46:41;3.38;;;2.00;;
12267;SDS011;6196;48.398;11.736;2022-10-17T11:49:15;3.38;;;2.20;;
12267;SDS011;6196;48.398;11.736;2022-10-17T11:51:56;2.40;;;2.20;;
12267;SDS011;6196;48.398;11.736;2022-10-17T11:54:40;3.65;;;1.75;;
12267;SDS011;6196;48.398;11.736;2022-10-17T12:00:30;1.92;;;1.77;;
12267;SDS011;6196;48.398;11.736;2022-10-17T12:06:48;3.15;;;2.25;;
12267;SDS011;6196;48.398;11.736;2022-10-17T12:12:33;4.13;;;2.40;;
12267;SDS011;6196;48.398;11.736;2022-10-17T12:17:53;4.30;;;2.10;;
12267;SDS011;6196;48.398;11.736;2022-10-17T12:20:31;3.10;;;2.00;;
12267;SDS011;6196;48.398;11.736;2022-10-17T12:23:03;4.22;;;1.90;;
12267;SDS011;6196;48.398;11.736;2022-10-17T12:28:32;2.05;;;1.85;;
12267;SDS011;6196;48.398;11.736;2022-10-17T12:31:09;3.20;;;1.85;;
12267;SDS011;6196;48.398;11.736;2022-10-17T12:33:58;2.60;;;2.00;;
12267;SDS011;6196;48.398;11.736;2022-10-17T12:44:51;4.07;;;1.70;;
12267;SDS011;6196;48.398;11.736;2022-10-17T13:00:56;2.40;;;2.17;;
12267;SDS011;6196;48.398;11.736;2022-10-17T13:03:45;3.58;;;1.85;;
12267;SDS011;6196;48.398;11.736;2022-10-17T13:06:24;3.05;;;2.15;;
12267;SDS011;6196;48.398;11.736;2022-10-17T13:08:56;4.20;;;2.00;;
12267;SDS011;6196;48.398;11.736;2022-10-17T13:11:31;4.28;;;2.15;;
12267;SDS011;6196;48.398;11.736;2022-10-17T13:14:01;2.58;;;1.92;;
12267;SDS011;6196;48.398;11.736;2022-10-17T13:16:36;3.15;;;2.30;;
12267;SDS011;6196;48.398;11.736;2022-10-17T13:19:14;2.50;;;1.85;;
12267;SDS011;6196;48.398;11.736;2022-10-17T13:24:31;2.85;;;2.30;;
12267;SDS011;6196;48.398;11.736;2022-10-17T13:27:04;2.97;;;1.60;;
12267;SDS011;6196;48.398;11.736;2022-10-17T13:29:46;4.07;;;1.90;;
12267;SDS011;6196;48.398;11.736;2022-10-17T13:32:14;4.72;;;1.80;;
12267;SDS011;6196;48.398;11.736;2022-10-17T13:34:41;3.92;;;2.30;;
12267;SDS011;6196;48.398;11.736;2022-10-17T13:37:11;2.10;;;1.90;;
12267;SDS011;6196;48.398;11.736;2022-10-17T13:39:41;3.22;;;1.95;;
12267;SDS011;6196;48.398;11.736;2022-10-17T13:42:25;2.38;;;2.03;;
12267;SDS011;6196;48.398;11.736;2022-10-17T13:44:56;4.95;;;2.30;;
12267;SDS011;6196;48.398;11.736;2022-10-17T13:47:24;3.88;;;1.98;;
12267;SDS011;6196;48.398;11.736;2022-10-17T13:49:55;2.88;;;2.30;;
12267;SDS011;6196;48.398;11.736;2022-10-17T13:52:24;5.00;;;2.38;;
12267;SDS011;6196;48.398;11.736;2022-10-17T13:54:59;4.53;;;2.20;;
12267;SDS011;6196;48.398;11.736;2022-10-17T13:57:42;6.95;;;2.00;;
12267;SDS011;6196;48.398;11.736;2022-10-17T14:00:11;3.22;;;2.10;;
12267;SDS011;6196;48.398;11.736;2022-10-17T14:02:45;2.88;;;1.75;;
12267;SDS011;6196;48.398;11.736;2022-10-17T14:05:18;3.10;;;1.65;;
12267;SDS011;6196;48.398;11.736;2022-10-17T14:07:53;2.10;;;1.90;;
12267;SDS011;6196;48.398;11.736;2022-10-17T14:10:39;2.88;;;1.75;;
12267;SDS011;6196;48.398;11.736;2022-10-17T14:13:16;4.28;;;1.88;;
12267;SDS011;6196;48.398;11.736;2022-10-17T14:15:46;5.75;;;2.20;;
12267;SDS011;6196;48.398;11.736;2022-10-17T14:18:16;2.75;;;1.70;;
12267;SDS011;6196;48.398;11.736;2022-10-17T14:20:48;3.67;;;2.00;;
12267;SDS011;6196;48.398;11.736;2022-10-17T14:23:37;2.30;;;1.75;;
12267;SDS011;6196;48.398;11.736;2022-10-17T14:26:08;3.00;;;1.83;;
12267;SDS011;6196;48.398;11.736;2022-10-17T14:32:02;2.50;;;2.00;;
12267;SDS011;6196;48.398;11.736;2022-10-17T14:34:34;3.13;;;1.83;;
12267;SDS011;6196;48.398;11.736;2022-10-17T14:37:08;3.50;;;1.52;;
12267;SDS011;6196;48.398;11.736;2022-10-17T14:39:38;2.75;;;2.05;;
12267;SDS011;6196;48.398;11.736;2022-10-17T14:42:05;2.22;;;1.77;;
12267;SDS011;6196;48.398;11.736;2022-10-17T14:44:32;3.97;;;2.00;;
12267;SDS011;6196;48.398;11.736;2022-10-17T14:47:02;4.35;;;2.10;;
12267;SDS011;6196;48.398;11.736;2022-10-17T14:50:02;6.47;;;1.85;;
12267;SDS011;6196;48.398;11.736;2022-10-17T14:52:35;3.88;;;1.77;;
12267;SDS011;6196;48.398;11.736;2022-10-17T14:55:23;6.13;;;2.28;;
12267;SDS011;6196;48.398;11.736;2022-10-17T14:57:52;4.03;;;2.15;;
12267;SDS011;6196;48.398;11.736;2022-10-17T15:00:19;2.33;;;1.90;;
12267;SDS011;6196;48.398;11.736;2022-10-17T15:02:48;2.47;;;1.80;;
12267;SDS011;6196;48.398;11.736;2022-10-17T15:05:16;2.78;;;1.90;;
12267;SDS011;6196;48.398;11.736;2022-10-17T15:07:44;2.30;;;2.10;;
12267;SDS011;6196;48.398;11.736;2022-10-17T15:10:26;3.92;;;2.03;;
12267;SDS011;6196;48.398;11.736;2022-10-17T15:12:59;5.40;;;2.13;;
12267;SDS011;6196;48.398;11.736;2022-10-17T15:15:47;3.40;;;2.30;;
12267;SDS011;6196;48.398;11.736;2022-10-17T15:18:17;4.80;;;1.88;;
12267;SDS011;6196;48.398;11.736;2022-10-17T15:20:44;5.75;;;2.30;;
12267;SDS011;6196;48.398;11.736;2022-10-17T15:23:11;3.50;;;1.95;;
12267;SDS011;6196;48.398;11.736;2022-10-17T15:25:38;4.82;;;2.03;;
12267;SDS011;6196;48.398;11.736;2022-10-17T15:28:05;4.38;;;2.10;;
12267;SDS011;6196;48.398;11.736;2022-10-17T15:30:33;2.72;;;1.90;;
12267;SDS011;6196;48.398;11.736;2022-10-17T15:33:01;4.47;;;2.10;;
12267;SDS011;6196;48.398;11.736;2022-10-17T15:35:28;3.92;;;2.05;;
12267;SDS011;6196;48.398;11.736;2022-10-17T15:37:56;4.40;;;2.10;;
12267;SDS011;6196;48.398;11.736;2022-10-17T15:40:23;4.87;;;2.33;;
12267;SDS011;6196;48.398;11.736;2022-10-17T15:42:54;5.03;;;2.20;;
12267;SDS011;6196;48.398;11.736;2022-10-17T15:45:21;2.90;;;2.10;;
12267;SDS011;6196;48.398;11.736;2022-10-17T15:47:50;3.60;;;1.90;;
12267;SDS011;6196;48.398;11.736;2022-10-17T15:50:19;5.30;;;2.60;;
12267;SDS011;6196;48.398;11.736;2022-10-17T15:52:47;5.53;;;2.20;;
12267;SDS011;6196;48.398;11.736;2022-10-17T15:55:18;5.00;;;2.37;;
12267;SDS011;6196;48.398;11.736;2022-10-17T15:57:45;5.33;;;2.50;;
12267;SDS011;6196;48.398;11.736;2022-10-17T16:02:43;7.40;;;2.47;;
12267;SDS011;6196;48.398;11.736;2022-10-17T16:05:20;5.97;;;2.20;;
12267;SDS011;6196;48.398;11.736;2022-10-17T16:07:51;4.40;;;2.67;;
12267;SDS011;6196;48.398;11.736;2022-10-17T16:10:19;4.77;;;2.40;;
12267;SDS011;6196;48.398;11.736;2022-10-17T16:12:48;4.13;;;2.40;;
12267;SDS011;6196;48.398;11.736;2022-10-17T16:17:51;2.70;;;2.17;;
12267;SDS011;6196;48.398;11.736;2022-10-17T16:20:20;4.27;;;2.30;;
12267;SDS011;6196;48.398;11.736;2022-10-17T16:22:49;6.27;;;2.40;;
12267;SDS011;6196;48.398;11.736;2022-10-17T16:25:20;5.33;;;2.43;;
12267;SDS011;6196;48.398;11.736;2022-10-17T16:27:51;3.73;;;2.60;;
12267;SDS011;6196;48.398;11.736;2022-10-17T16:30:20;3.87;;;2.10;;
12267;SDS011;6196;48.398;11.736;2022-10-17T16:32:50;5.00;;;2.40;;
12267;SDS011;6196;48.398;11.736;2022-10-17T16:35:20;6.37;;;2.27;;
12267;SDS011;6196;48.398;11.736;2022-10-17T16:37:49;2.60;;;2.27;;
12267;SDS011;6196;48.398;11.736;2022-10-17T16:40:17;4.00;;;2.47;;
12267;SDS011;6196;48.398;11.736;2022-10-17T16:42:44;6.90;;;2.33;;
12267;SDS011;6196;48.398;11.736;2022-10-17T16:45:15;7.60;;;2.80;;
12267;SDS011;6196;48.398;11.736;2022-10-17T16:47:44;3.30;;;2.10;;
12267;SDS011;6196;48.398;11.736;2022-10-17T16:50:12;3.53;;;2.57;;
12267;SDS011;6196;48.398;11.736;2022-10-17T16:52:40;5.93;;;2.80;;
12267;SDS011;6196;48.398;11.736;2022-10-17T16:55:07;4.40;;;2.23;;
12267;SDS011;6196;48.398;11.736;2022-10-17T16:57:35;5.17;;;2.97;;
12267;SDS011;6196;48.398;11.736;2022-10-17T17:00:02;5.73;;;2.50;;
12267;SDS011;6196;48.398;11.736;2022-10-17T17:02:31;3.77;;;2.53;;
12267;SDS011;6196;48.398;11.736;2022-10-17T17:04:58;3.37;;;2.60;;
12267;SDS011;6196;48.398;11.736;2022-10-17T17:07:26;3.27;;;2.60;;
12267;SDS011;6196;48.398;11.736;2022-10-17T17:09:55;3.93;;;2.40;;
12267;SDS011;6196;48.398;11.736;2022-10-17T17:12:22;6.67;;;2.50;;
12267;SDS011;6196;48.398;11.736;2022-10-17T17:14:49;3.40;;;2.17;;
12267;SDS011;6196;48.398;11.736;2022-10-17T17:17:15;3.33;;;2.57;;
12267;SDS011;6196;48.398;11.736;2022-10-17T17:20:04;3.47;;;2.40;;
12267;SDS011;6196;48.398;11.736;2022-10-17T17:22:31;6.80;;;2.87;;
12267;SDS011;6196;48.398;11.736;2022-10-17T17:24:58;5.70;;;3.10;;
12267;SDS011;6196;48.398;11.736;2022-10-17T17:27:28;6.43;;;3.20;;
12267;SDS011;6196;48.398;11.736;2022-10-17T17:29:55;3.37;;;2.60;;
12267;SDS011;6196;48.398;11.736;2022-10-17T17:32:22;5.20;;;2.50;;
12267;SDS011;6196;48.398;11.736;2022-10-17T17:34:49;4.97;;;2.43;;
12267;SDS011;6196;48.398;11.736;2022-10-17T17:37:16;4.90;;;2.67;;